Candlewick Lake, Illinois
Current Conditions -  °F | °C
As of 4:45 PM on Friday 31 Oct 2014 (Local Time) from KJVL Reporting Station
Broken Clouds Broken Clouds  
Wind Chill: 29°   Ceiling: 5000
Heat Index: 39°   Visibility: 10mi
Dew Point: 18°   Wind: 23mph
Humidity: 42%   Direction: 360°N
Pressure: 30.33"   Gusts: 29mph
Location:  42.409°N, 88.8277°W
Report Text: KJVL 312145Z 36020G25KT 10SM BKN050 04/M08 A3033
Loading
Personal Weather Stations






























Interactive Weather Map
Tropical Storm Tracking
New forecast layout! Learn more

10-Day Weather Forecast

Advertisements
Track Severe Weather on mobile